Time;durP1;ratioP1;P1;durP2;ratioP2;P2;SDS_P1;SDS_P2;PMS_P1;PMS_P2;Temp;Humidity;BMP_temperature;BMP_pressure;BME280_temperature;BME280_humidity;BME280_pressure;Samples;Min_cycle;Max_cycle;Signal;HPM_P1;HPM_P2
2024/03/05 00:02:02;;;;;;;676.20;625.27;;;5.80;99.90;;;;;;5012045;28;20608;-67
2024/03/05 00:04:30;;;;;;;670.13;618.97;;;5.70;99.90;;;;;;5011323;28;20477;-67
2024/03/05 00:06:57;;;;;;;677.17;626.87;;;5.60;99.90;;;;;;4999551;28;20832;-67
2024/03/05 00:09:24;;;;;;;675.00;624.87;;;5.50;99.90;;;;;;4992263;28;20972;-68
2024/03/05 00:11:51;;;;;;;667.20;616.37;;;5.40;99.90;;;;;;4996974;28;20485;-67
2024/03/05 00:14:18;;;;;;;669.93;618.23;;;5.30;99.90;;;;;;5015398;28;20988;-67
2024/03/05 00:16:47;;;;;;;669.37;617.00;;;5.30;99.90;;;;;;5015523;28;20816;-67
2024/03/05 00:19:13;;;;;;;687.10;634.40;;;5.20;99.90;;;;;;5015421;28;20461;-67
2024/03/05 00:21:42;;;;;;;696.13;641.63;;;5.10;99.90;;;;;;5015616;28;20456;-68
2024/03/05 00:24:08;;;;;;;715.63;660.83;;;5.00;99.90;;;;;;5015397;28;20571;-68
2024/03/05 00:26:36;;;;;;;723.20;665.67;;;5.00;99.90;;;;;;5015188;28;20467;-67
2024/03/05 00:29:04;;;;;;;703.93;646.70;;;5.10;99.90;;;;;;5010020;28;20461;-67
2024/03/05 00:31:32;;;;;;;696.90;639.30;;;5.10;99.90;;;;;;5012582;28;20460;-67
2024/03/05 00:33:59;;;;;;;702.13;643.60;;;5.20;99.90;;;;;;5014969;28;20515;-68
2024/03/05 00:36:26;;;;;;;717.63;659.03;;;5.20;99.90;;;;;;5014715;28;20452;-67
2024/03/05 00:38:54;;;;;;;751.83;690.53;;;5.40;99.90;;;;;;5015244;28;20456;-68
2024/03/05 00:41:22;;;;;;;720.00;658.07;;;5.40;99.90;;;;;;5007624;28;20520;-68
2024/03/05 00:43:49;;;;;;;701.83;640.80;;;5.70;99.90;;;;;;5006687;28;20469;-67
2024/03/05 00:46:16;;;;;;;692.33;632.57;;;6.10;99.90;;;;;;5014610;28;20824;-67
2024/03/05 00:48:43;;;;;;;671.13;613.17;;;6.10;99.90;;;;;;5015054;28;20949;-67
2024/03/05 00:51:10;;;;;;;632.80;578.23;;;6.20;99.90;;;;;;5015383;28;20463;-67
2024/03/05 00:53:37;;;;;;;632.57;578.33;;;6.30;99.90;;;;;;5005195;28;20572;-68
2024/03/05 00:56:06;;;;;;;627.53;573.40;;;6.30;99.90;;;;;;4995332;28;20461;-68
2024/03/05 00:58:33;;;;;;;631.23;578.77;;;6.40;99.90;;;;;;4996101;28;20461;-68
2024/03/05 01:01:03;;;;;;;619.33;569.17;;;6.40;99.90;;;;;;5000643;28;20463;-68
2024/03/05 01:03:31;;;;;;;600.97;552.30;;;6.50;99.90;;;;;;5015017;28;20477;-68
2024/03/05 01:05:58;;;;;;;589.63;542.50;;;6.60;99.90;;;;;;5014740;28;20456;-67
2024/03/05 01:08:24;;;;;;;558.30;513.27;;;6.70;99.90;;;;;;5006763;28;20454;-67
2024/03/05 01:10:51;;;;;;;554.03;511.70;;;6.70;99.90;;;;;;5002992;28;20464;-67
2024/03/05 01:13:19;;;;;;;540.80;499.33;;;6.70;99.90;;;;;;5001933;28;20488;-68
2024/03/05 01:15:46;;;;;;;533.43;494.80;;;6.80;99.90;;;;;;5014597;28;20461;-68
2024/03/05 01:18:13;;;;;;;544.40;504.60;;;6.80;99.90;;;;;;5008049;28;20458;-67
2024/03/05 01:20:41;;;;;;;518.53;483.23;;;6.70;99.90;;;;;;4995151;28;20521;-67
2024/03/05 01:23:10;;;;;;;528.40;491.50;;;6.70;99.90;;;;;;4999744;28;20469;-68
2024/03/05 01:25:37;;;;;;;526.33;489.93;;;6.60;99.90;;;;;;5004211;28;20462;-67
2024/03/05 01:28:07;;;;;;;523.07;488.10;;;6.60;99.90;;;;;;4994633;28;20454;-68
2024/03/05 01:30:36;;;;;;;518.47;480.80;;;6.60;99.90;;;;;;5012463;28;20503;-67
2024/03/05 01:33:05;;;;;;;508.97;472.43;;;6.60;99.90;;;;;;5014181;28;20500;-67
2024/03/05 01:35:32;;;;;;;524.90;488.30;;;6.50;99.90;;;;;;5012882;28;20838;-68
2024/03/05 01:37:59;;;;;;;522.10;485.20;;;6.50;99.90;;;;;;4994760;28;20493;-68
2024/03/05 01:40:25;;;;;;;548.10;510.00;;;6.40;99.90;;;;;;4994278;28;20454;-67
2024/03/05 01:42:52;;;;;;;545.23;509.03;;;6.40;99.90;;;;;;4994484;28;20474;-67
2024/03/05 01:45:19;;;;;;;547.40;510.03;;;6.30;99.90;;;;;;4994096;28;20843;-67
2024/03/05 01:47:48;;;;;;;546.10;509.97;;;6.20;99.90;;;;;;5013535;28;20843;-67
2024/03/05 01:50:16;;;;;;;546.80;508.40;;;6.20;99.90;;;;;;5014303;28;20457;-68
2024/03/05 01:52:44;;;;;;;553.53;512.00;;;6.20;99.90;;;;;;5014012;28;20484;-67
2024/03/05 01:55:15;;;;;;;563.50;519.70;;;6.20;99.90;;;;;;5001728;28;20458;-68
2024/03/05 01:57:44;;;;;;;563.33;519.87;;;6.30;99.90;;;;;;5001649;28;20470;-67
2024/03/05 02:00:15;;;;;;;549.70;508.43;;;6.50;99.90;;;;;;5014569;28;20544;-67
2024/03/05 02:02:43;;;;;;;528.40;489.70;;;6.50;99.90;;;;;;5020910;28;20878;-68
2024/03/05 02:05:12;;;;;;;525.90;489.53;;;6.60;99.90;;;;;;5014637;28;20459;-67
2024/03/05 02:07:40;;;;;;;515.27;480.27;;;6.70;99.90;;;;;;5013538;28;20464;-68
2024/03/05 02:10:08;;;;;;;501.90;468.67;;;6.80;99.90;;;;;;5013747;28;20483;-68
2024/03/05 02:12:35;;;;;;;495.10;464.80;;;6.80;99.90;;;;;;5004121;28;20485;-68
2024/03/05 02:15:01;;;;;;;486.43;455.77;;;6.80;99.90;;;;;;4993895;28;20470;-67
2024/03/05 02:17:31;;;;;;;480.40;451.10;;;6.80;99.90;;;;;;4994185;28;20546;-68
2024/03/05 02:19:58;;;;;;;463.67;436.63;;;6.90;99.90;;;;;;4998407;28;20452;-67
2024/03/05 02:22:26;;;;;;;458.83;432.60;;;6.90;99.90;;;;;;5013441;28;20576;-68
2024/03/05 02:24:53;;;;;;;457.00;430.60;;;6.90;99.90;;;;;;5013204;28;20456;-68
2024/03/05 02:27:20;;;;;;;454.97;428.90;;;6.90;99.90;;;;;;5013208;28;20455;-67
2024/03/05 02:29:47;;;;;;;455.87;429.37;;;6.90;99.90;;;;;;5013243;28;20484;-67
2024/03/05 02:32:15;;;;;;;447.77;422.30;;;6.90;99.90;;;;;;5013057;28;20485;-68
2024/03/05 02:34:41;;;;;;;449.77;424.10;;;6.90;99.90;;;;;;5001700;28;21036;-68
2024/03/05 02:37:11;;;;;;;451.70;423.90;;;6.90;99.90;;;;;;4993426;28;20969;-68
2024/03/05 02:39:39;;;;;;;448.30;421.57;;;6.90;99.90;;;;;;5003522;28;20538;-68
2024/03/05 02:42:06;;;;;;;448.93;423.87;;;7.00;99.90;;;;;;5012978;28;20453;-67
2024/03/05 02:44:33;;;;;;;460.73;434.03;;;6.90;99.90;;;;;;5012623;28;20457;-67
2024/03/05 02:46:59;;;;;;;470.57;443.30;;;6.90;99.90;;;;;;5012844;28;20533;-68
2024/03/05 02:49:26;;;;;;;474.37;447.27;;;6.90;99.90;;;;;;5013030;28;20528;-68
2024/03/05 02:51:54;;;;;;;464.53;437.17;;;6.90;99.90;;;;;;5009344;28;20837;-67
2024/03/05 02:54:21;;;;;;;457.90;430.80;;;6.90;99.90;;;;;;5008518;28;20484;-68
2024/03/05 02:56:49;;;;;;;466.57;439.53;;;6.90;99.90;;;;;;5012836;28;20524;-68
2024/03/05 02:59:16;;;;;;;476.00;446.40;;;6.90;99.90;;;;;;5012502;28;20483;-68
2024/03/05 03:01:47;;;;;;;474.37;444.70;;;6.90;99.90;;;;;;5012499;28;20486;-68
2024/03/05 03:04:15;;;;;;;479.40;450.20;;;6.90;99.90;;;;;;5012490;28;20473;-68
2024/03/05 03:06:43;;;;;;;486.57;456.47;;;6.90;99.90;;;;;;5012567;28;21018;-68
2024/03/05 03:09:11;;;;;;;488.33;456.73;;;6.90;99.90;;;;;;5012792;28;20980;-68
2024/03/05 03:11:41;;;;;;;483.50;453.53;;;6.90;99.90;;;;;;5012518;28;20982;-68
2024/03/05 03:14:11;;;;;;;483.93;453.67;;;6.90;99.90;;;;;;4998206;28;20537;-67
2024/03/05 03:16:40;;;;;;;481.97;451.50;;;6.90;99.90;;;;;;5011064;28;20460;-67
2024/03/05 03:19:06;;;;;;;489.83;459.67;;;6.90;99.90;;;;;;5012488;28;20832;-67
2024/03/05 03:21:33;;;;;;;486.67;455.67;;;6.90;99.90;;;;;;5004319;28;20449;-67
2024/03/05 03:24:00;;;;;;;489.70;458.10;;;7.00;99.90;;;;;;5012397;28;20475;-68
2024/03/05 03:26:27;;;;;;;483.37;452.67;;;6.90;99.90;;;;;;5003566;28;20453;-67
2024/03/05 03:28:54;;;;;;;491.43;459.83;;;6.90;99.90;;;;;;4992389;28;20974;-67
2024/03/05 03:31:23;;;;;;;499.90;466.20;;;7.00;99.90;;;;;;5000203;28;20461;-68
2024/03/05 03:33:49;;;;;;;502.23;467.33;;;7.00;99.90;;;;;;5012103;28;20496;-68
2024/03/05 03:36:24;;;;;;;496.20;463.80;;;6.90;99.90;;;;;;5005138;28;20833;-67
2024/03/05 03:38:50;;;;;;;496.10;463.10;;;7.00;99.90;;;;;;4992682;28;20453;-68
2024/03/05 03:41:19;;;;;;;490.90;458.90;;;7.00;99.90;;;;;;4992429;28;20453;-68
2024/03/05 03:43:47;;;;;;;496.53;463.53;;;7.00;99.90;;;;;;4992442;28;20473;-68
2024/03/05 03:46:13;;;;;;;499.13;464.90;;;7.00;99.90;;;;;;5007534;28;20457;-68
2024/03/05 03:48:42;;;;;;;501.70;467.57;;;6.90;99.90;;;;;;5016811;28;20452;-68
2024/03/05 03:51:09;;;;;;;498.50;464.60;;;7.00;99.90;;;;;;5002678;28;20454;-67
2024/03/05 03:53:37;;;;;;;489.60;455.77;;;6.90;99.90;;;;;;4997163;28;20572;-67
2024/03/05 03:56:04;;;;;;;500.30;465.87;;;6.90;99.90;;;;;;5001839;28;20460;-68
2024/03/05 03:58:32;;;;;;;512.03;476.30;;;7.00;99.90;;;;;;5016424;28;20465;-67
2024/03/05 04:00:59;;;;;;;496.27;461.47;;;7.00;99.90;;;;;;5011963;28;20816;-68
2024/03/05 04:03:26;;;;;;;478.67;446.67;;;7.00;99.90;;;;;;5012612;28;20841;-67
2024/03/05 04:05:54;;;;;;;486.47;453.40;;;7.00;99.90;;;;;;5015442;28;20839;-68
2024/03/05 04:08:21;;;;;;;479.13;448.33;;;7.00;99.90;;;;;;5007736;28;20452;-67
2024/03/05 04:10:48;;;;;;;478.97;447.17;;;7.10;99.90;;;;;;5016046;28;20482;-67
2024/03/05 04:13:17;;;;;;;485.57;454.07;;;7.10;99.90;;;;;;5015732;28;20494;-68
2024/03/05 04:15:44;;;;;;;492.00;460.83;;;7.10;99.90;;;;;;5012991;28;20831;-68
2024/03/05 04:18:10;;;;;;;502.30;468.97;;;7.10;99.90;;;;;;4996186;28;20453;-67
2024/03/05 04:20:37;;;;;;;509.53;475.70;;;7.10;99.90;;;;;;4996054;28;20460;-68
2024/03/05 04:23:06;;;;;;;509.27;473.73;;;7.10;99.90;;;;;;5009308;28;21049;-67
2024/03/05 04:25:39;;;;;;;514.30;479.90;;;7.10;99.90;;;;;;5015470;28;20533;-68
2024/03/05 04:28:10;;;;;;;504.70;469.50;;;7.10;99.90;;;;;;5015758;28;20460;-68
2024/03/05 04:30:38;;;;;;;496.87;464.07;;;7.20;99.90;;;;;;5015354;28;20452;-67
2024/03/05 04:33:09;;;;;;;494.60;461.13;;;7.20;99.90;;;;;;5015364;28;20928;-68
2024/03/05 04:35:35;;;;;;;498.23;465.03;;;7.10;99.90;;;;;;5014728;28;20463;-67
2024/03/05 04:38:05;;;;;;;487.77;456.43;;;7.20;99.90;;;;;;5015411;28;20452;-67
2024/03/05 04:40:33;;;;;;;473.83;445.13;;;7.20;99.90;;;;;;4997990;28;20493;-68
2024/03/05 04:43:00;;;;;;;471.47;442.27;;;7.20;99.90;;;;;;4995523;28;21004;-67
2024/03/05 04:45:27;;;;;;;458.03;431.03;;;7.20;99.90;;;;;;5003621;28;20920;-68
2024/03/05 04:47:54;;;;;;;446.20;419.97;;;7.20;99.90;;;;;;5015169;28;20456;-67
2024/03/05 04:50:21;;;;;;;442.07;416.40;;;7.20;99.90;;;;;;5014897;28;20975;-67
2024/03/05 04:52:48;;;;;;;436.00;410.27;;;7.20;99.90;;;;;;5014925;28;20560;-67
2024/03/05 04:55:16;;;;;;;427.20;401.97;;;7.20;99.90;;;;;;5006663;28;20888;-67
2024/03/05 04:57:44;;;;;;;444.03;417.97;;;7.20;99.90;;;;;;5004055;28;20469;-67
2024/03/05 05:00:20;;;;;;;441.77;415.77;;;7.20;99.90;;;;;;4995247;28;20454;-67
2024/03/05 05:02:47;;;;;;;436.20;411.37;;;7.10;99.90;;;;;;5014357;28;21022;-67
2024/03/05 05:05:15;;;;;;;451.03;422.83;;;7.00;99.90;;;;;;5014646;28;20508;-68
2024/03/05 05:07:43;;;;;;;452.97;426.00;;;7.00;99.90;;;;;;5012586;28;20493;-67
2024/03/05 05:10:10;;;;;;;456.50;427.70;;;7.00;99.90;;;;;;5009181;28;21042;-67
2024/03/05 05:12:39;;;;;;;466.93;436.13;;;6.90;99.90;;;;;;5014596;28;20479;-67
2024/03/05 05:15:09;;;;;;;468.40;436.87;;;6.90;99.90;;;;;;5000471;28;20489;-68
2024/03/05 05:17:35;;;;;;;464.00;432.70;;;6.90;99.90;;;;;;4995198;28;20458;-67
2024/03/05 05:20:04;;;;;;;471.57;439.17;;;6.90;99.90;;;;;;5007266;28;20457;-67
2024/03/05 05:22:30;;;;;;;476.37;443.60;;;6.90;99.90;;;;;;5005332;28;20477;-68
2024/03/05 05:24:57;;;;;;;485.27;452.33;;;6.90;99.90;;;;;;5013817;28;20857;-67
2024/03/05 05:27:24;;;;;;;487.03;453.00;;;7.00;99.90;;;;;;5006296;28;20968;-67
2024/03/05 05:29:51;;;;;;;481.07;446.73;;;6.90;99.90;;;;;;4994681;28;20457;-68
2024/03/05 05:32:20;;;;;;;484.70;450.10;;;6.90;99.90;;;;;;4994521;28;20456;-67
2024/03/05 05:34:47;;;;;;;488.63;452.90;;;6.90;99.90;;;;;;5005398;28;20584;-68
2024/03/05 05:37:15;;;;;;;489.10;456.30;;;6.90;99.90;;;;;;5014184;28;20457;-67
2024/03/05 05:39:42;;;;;;;485.70;451.43;;;6.90;99.90;;;;;;5005861;28;20461;-68
2024/03/05 05:42:12;;;;;;;483.40;450.30;;;6.90;99.90;;;;;;5007775;28;20461;-67
2024/03/05 05:44:38;;;;;;;482.83;451.37;;;6.90;99.90;;;;;;5012027;28;20511;-67
2024/03/05 05:47:05;;;;;;;478.70;446.93;;;6.90;99.90;;;;;;5014233;28;20797;-67
2024/03/05 05:49:33;;;;;;;483.30;450.20;;;6.90;99.90;;;;;;5013704;28;20850;-68
2024/03/05 05:52:00;;;;;;;481.10;450.17;;;6.90;99.90;;;;;;5009085;28;20454;-68
2024/03/05 05:54:29;;;;;;;488.47;453.77;;;6.90;99.90;;;;;;5001750;28;20484;-67
2024/03/05 05:56:56;;;;;;;481.10;448.20;;;6.90;99.90;;;;;;5001212;28;20957;-67
2024/03/05 05:59:23;;;;;;;491.30;459.00;;;6.90;99.90;;;;;;4994000;28;20855;-68
2024/03/05 06:01:50;;;;;;;483.03;451.13;;;6.90;99.90;;;;;;5002215;28;20469;-67
2024/03/05 06:04:17;;;;;;;487.63;454.47;;;6.90;99.90;;;;;;5008685;28;20469;-67
2024/03/05 06:06:45;;;;;;;491.80;457.90;;;6.90;99.90;;;;;;5013478;28;20453;-67
2024/03/05 06:09:11;;;;;;;488.63;456.43;;;6.90;99.90;;;;;;5012582;28;20457;-67
2024/03/05 06:11:39;;;;;;;485.63;452.50;;;6.90;99.90;;;;;;5003609;28;20464;-67
2024/03/05 06:14:06;;;;;;;485.97;452.80;;;6.90;99.90;;;;;;5007444;28;20515;-67
2024/03/05 06:16:33;;;;;;;492.97;458.53;;;7.00;99.90;;;;;;5013012;28;20465;-67
2024/03/05 06:19:00;;;;;;;482.67;449.73;;;7.00;99.90;;;;;;5013320;28;20463;-68
2024/03/05 06:21:27;;;;;;;478.67;444.87;;;7.00;99.90;;;;;;5013104;28;20847;-67
2024/03/05 06:23:55;;;;;;;457.73;424.77;;;7.00;99.90;;;;;;5012818;28;20561;-67
2024/03/05 06:26:23;;;;;;;472.30;438.07;;;7.00;99.90;;;;;;5005049;28;20466;-67
2024/03/05 06:28:50;;;;;;;467.33;433.73;;;7.10;99.90;;;;;;4993660;28;20846;-67
2024/03/05 06:31:16;;;;;;;462.20;429.67;;;7.00;99.90;;;;;;4993404;28;20458;-67
2024/03/05 06:33:44;;;;;;;465.17;433.07;;;7.00;99.90;;;;;;4993305;28;20859;-67
2024/03/05 06:36:11;;;;;;;471.23;437.07;;;7.00;99.90;;;;;;4993259;28;20837;-67
2024/03/05 06:38:38;;;;;;;479.70;446.43;;;7.00;99.90;;;;;;5003176;28;20470;-67
2024/03/05 06:41:06;;;;;;;472.57;438.67;;;7.00;99.90;;;;;;5012966;28;20507;-67
2024/03/05 06:43:36;;;;;;;468.60;435.07;;;7.00;99.90;;;;;;5012961;28;20840;-67
2024/03/05 06:46:03;;;;;;;478.37;444.67;;;7.10;99.90;;;;;;5004547;28;20953;-67
2024/03/05 06:48:32;;;;;;;478.37;444.27;;;7.10;99.90;;;;;;5013089;28;20453;-68
2024/03/05 06:51:01;;;;;;;485.43;451.83;;;7.10;99.90;;;;;;5012787;28;20453;-68
2024/03/05 06:58:59;;;;;;;475.80;440.90;;;7.10;99.90;;;;;;5012408;28;20452;-67
2024/03/05 07:01:28;;;;;;;455.63;422.13;;;7.10;99.90;;;;;;5012156;28;20452;-67
2024/03/05 07:03:55;;;;;;;454.90;422.40;;;7.10;99.90;;;;;;5012230;28;20475;-67
2024/03/05 07:06:23;;;;;;;461.93;428.27;;;7.20;99.90;;;;;;5003433;28;20526;-68
2024/03/05 07:08:51;;;;;;;461.73;426.10;;;7.30;99.90;;;;;;5000187;28;20449;-67
2024/03/05 07:11:19;;;;;;;460.10;426.20;;;7.20;99.90;;;;;;4992541;28;20515;-68
2024/03/05 07:13:48;;;;;;;469.10;433.40;;;7.20;99.90;;;;;;4994943;28;20477;-68
2024/03/05 07:16:15;;;;;;;470.37;435.27;;;7.20;99.90;;;;;;5012174;28;20839;-66
2024/03/05 07:18:43;;;;;;;482.50;445.87;;;7.20;99.90;;;;;;5001390;28;20458;-67
2024/03/05 07:21:10;;;;;;;482.87;446.33;;;7.30;99.90;;;;;;4991509;28;20833;-68
2024/03/05 07:23:37;;;;;;;484.17;448.27;;;7.20;99.90;;;;;;4992380;28;20848;-68
2024/03/05 07:26:04;;;;;;;495.23;457.17;;;7.30;99.90;;;;;;4991735;28;20458;-68
2024/03/05 07:28:33;;;;;;;494.40;456.10;;;7.30;99.90;;;;;;4992321;28;20469;-68
2024/03/05 07:31:00;;;;;;;523.70;483.30;;;7.30;99.90;;;;;;4992597;28;20525;-68
2024/03/05 07:33:26;;;;;;;526.17;484.67;;;7.30;99.90;;;;;;4992429;28;20484;-68
2024/03/05 07:35:53;;;;;;;550.70;508.87;;;7.30;99.90;;;;;;5004050;28;20941;-68
2024/03/05 07:38:21;;;;;;;564.80;521.40;;;7.40;99.90;;;;;;5011897;28;20463;-67
2024/03/05 07:40:48;;;;;;;566.80;523.97;;;7.40;99.90;;;;;;5011198;28;20449;-68
2024/03/05 07:43:16;;;;;;;565.90;522.53;;;7.40;99.90;;;;;;4996829;28;20532;-67
2024/03/05 07:45:44;;;;;;;559.67;515.37;;;7.40;99.90;;;;;;4991988;28;20901;-67
2024/03/05 07:48:11;;;;;;;561.33;516.73;;;7.40;99.90;;;;;;4991822;28;20453;-67
2024/03/05 07:50:39;;;;;;;579.10;533.90;;;7.50;99.90;;;;;;4994010;28;20450;-67
2024/03/05 07:53:06;;;;;;;605.73;558.03;;;7.50;99.90;;;;;;5011890;28;20492;-67
2024/03/05 07:55:37;;;;;;;611.30;564.90;;;7.60;99.90;;;;;;4993953;28;21013;-67
2024/03/05 07:58:06;;;;;;;641.03;592.17;;;7.60;99.90;;;;;;4992398;28;20512;-67
2024/03/05 08:00:35;;;;;;;645.47;595.97;;;7.60;99.90;;;;;;4991763;28;20461;-67
2024/03/05 08:03:04;;;;;;;693.93;642.03;;;7.60;99.90;;;;;;4997188;28;20501;-67
2024/03/05 08:05:31;;;;;;;718.87;666.13;;;7.60;99.90;;;;;;5010053;28;20829;-67
2024/03/05 08:07:58;;;;;;;729.37;676.27;;;7.60;99.90;;;;;;5010006;28;20990;-67
2024/03/05 08:10:26;;;;;;;744.10;689.97;;;7.60;99.90;;;;;;5011415;28;20841;-66
2024/03/05 08:12:55;;;;;;;778.70;723.20;;;7.60;99.90;;;;;;5011614;28;20652;-67
2024/03/05 08:15:24;;;;;;;827.97;769.20;;;7.70;99.90;;;;;;5003457;28;20489;-67
2024/03/05 08:17:51;;;;;;;835.13;775.70;;;7.70;99.90;;;;;;4995480;28;20492;-66
2024/03/05 08:20:21;;;;;;;858.37;798.47;;;7.70;99.90;;;;;;5009305;28;20532;-67
2024/03/05 08:22:49;;;;;;;919.20;855.97;;;7.70;99.90;;;;;;5011178;28;20866;-67
2024/03/05 08:25:17;;;;;;;927.50;862.40;;;7.70;99.90;;;;;;5010336;28;20836;-66
2024/03/05 08:27:45;;;;;;;923.50;857.60;;;7.70;99.90;;;;;;5011184;28;20480;-65
2024/03/05 08:30:15;;;;;;;924.60;856.70;;;7.70;99.90;;;;;;4996512;28;20460;-66
2024/03/05 08:32:43;;;;;;;931.23;862.10;;;7.80;99.90;;;;;;4992153;28;20473;-66
2024/03/05 08:35:11;;;;;;;927.17;857.60;;;7.70;99.90;;;;;;4994096;28;20572;-67
2024/03/05 08:37:41;;;;;;;924.47;851.47;;;7.70;99.90;;;;;;4996496;28;20457;-67
2024/03/05 08:40:13;;;;;;;926.70;853.40;;;7.70;99.90;;;;;;5009184;28;20461;-67
2024/03/05 08:42:42;;;;;;;917.50;843.60;;;7.70;99.90;;;;;;5004773;28;20908;-67
2024/03/05 08:45:09;;;;;;;910.90;836.93;;;7.70;99.90;;;;;;5014030;28;20453;-67
2024/03/05 08:47:36;;;;;;;901.20;828.10;;;7.70;99.90;;;;;;5014128;28;20463;-66
2024/03/05 08:50:04;;;;;;;910.67;835.03;;;7.70;99.90;;;;;;5000813;28;20465;-67
2024/03/05 08:52:31;;;;;;;924.00;848.37;;;7.70;99.90;;;;;;4994647;28;20482;-66
2024/03/05 08:54:59;;;;;;;969.03;891.00;;;7.70;99.90;;;;;;5006886;28;21042;-66
2024/03/05 08:57:27;;;;;;;1005.10;924.90;;;7.70;99.90;;;;;;5014403;28;20828;-65
2024/03/05 08:59:54;;;;;;;1057.07;975.37;;;7.70;99.90;;;;;;5010431;28;20492;-66
2024/03/05 09:02:20;;;;;;;1100.10;999.90;;;7.70;99.90;;;;;;5009687;28;20491;-66
2024/03/05 09:04:48;;;;;;;1133.00;999.90;;;7.60;99.90;;;;;;5013484;28;20452;-66
2024/03/05 09:07:15;;;;;;;1189.93;999.90;;;7.60;99.90;;;;;;5013926;28;20461;-66
2024/03/05 09:09:42;;;;;;;1213.73;999.90;;;7.60;99.90;;;;;;5011341;28;20457;-66
2024/03/05 09:12:12;;;;;;;1222.70;999.90;;;7.60;99.90;;;;;;5000036;28;20488;-66
2024/03/05 09:14:39;;;;;;;1236.37;999.90;;;7.60;99.90;;;;;;5003081;28;20466;-67
2024/03/05 09:17:06;;;;;;;1225.20;999.90;;;7.80;99.90;;;;;;5008016;28;20520;-66
2024/03/05 09:19:33;;;;;;;1233.47;999.90;;;7.60;99.90;;;;;;5004524;28;20512;-67
2024/03/05 09:22:04;;;;;;;1210.80;999.90;;;7.70;99.90;;;;;;5006934;28;20455;-66
2024/03/05 09:24:31;;;;;;;1179.77;999.90;;;7.70;99.90;;;;;;5013198;28;21050;-67
2024/03/05 09:26:59;;;;;;;1168.37;999.90;;;7.70;99.90;;;;;;5000913;28;20469;-66
2024/03/05 09:29:27;;;;;;;1161.50;999.90;;;7.70;99.90;;;;;;4994101;28;20537;-66
2024/03/05 09:31:54;;;;;;;1191.53;999.90;;;7.70;99.90;;;;;;4994299;28;20817;-67
2024/03/05 09:34:22;;;;;;;1178.10;999.90;;;7.80;99.90;;;;;;4993488;28;20482;-67
2024/03/05 09:36:48;;;;;;;1186.03;999.90;;;7.80;99.90;;;;;;5010513;28;20468;-67
2024/03/05 09:39:15;;;;;;;1201.57;999.90;;;7.80;99.90;;;;;;5008971;28;20543;-67
2024/03/05 09:41:44;;;;;;;1188.37;999.90;;;7.90;99.90;;;;;;5011200;28;20453;-66
2024/03/05 09:44:12;;;;;;;1174.63;999.90;;;8.10;99.90;;;;;;4999189;28;20560;-67
2024/03/05 09:46:42;;;;;;;1189.63;999.90;;;8.00;99.90;;;;;;5013009;28;20457;-67
2024/03/05 09:49:10;;;;;;;1203.23;999.90;;;8.00;99.90;;;;;;4999285;28;20903;-67
2024/03/05 09:51:39;;;;;;;1195.57;999.90;;;8.10;99.90;;;;;;5011382;28;20507;-67
2024/03/05 09:54:10;;;;;;;1188.30;999.90;;;8.20;99.90;;;;;;5012822;28;20469;-66
2024/03/05 09:56:40;;;;;;;1181.90;999.90;;;8.20;99.90;;;;;;5011316;28;20441;-67
2024/03/05 09:59:10;;;;;;;1177.87;999.90;;;8.40;99.90;;;;;;4993457;28;20457;-66
2024/03/05 10:01:37;;;;;;;1184.77;999.90;;;8.30;99.90;;;;;;5011338;28;20461;-67
2024/03/05 10:04:08;;;;;;;1190.57;999.90;;;8.30;99.90;;;;;;5012962;28;20519;-67
2024/03/05 10:06:35;;;;;;;1180.63;999.90;;;8.40;99.90;;;;;;5012288;28;20449;-66
2024/03/05 10:09:02;;;;;;;1187.70;999.90;;;8.30;99.90;;;;;;5013015;28;20460;-67
2024/03/05 10:11:29;;;;;;;1206.33;999.90;;;8.40;99.90;;;;;;5012676;28;20463;-66
2024/03/05 10:14:04;;;;;;;1235.30;999.90;;;8.40;99.90;;;;;;5004721;28;20472;-67
2024/03/05 10:16:31;;;;;;;1228.47;999.90;;;8.40;99.90;;;;;;5012462;28;21073;-67
2024/03/05 10:18:57;;;;;;;1215.40;999.90;;;8.50;99.90;;;;;;5012615;28;20472;-67
2024/03/05 10:21:26;;;;;;;1205.57;999.90;;;8.50;99.90;;;;;;5012373;28;20835;-66
2024/03/05 10:24:00;;;;;;;1220.53;999.90;;;8.50;99.90;;;;;;5012599;28;20468;-67
2024/03/05 10:26:29;;;;;;;1225.33;999.90;;;8.50;99.90;;;;;;4995792;28;20473;-66
2024/03/05 10:28:58;;;;;;;1233.00;999.90;;;8.50;99.90;;;;;;4992973;28;20454;-67
2024/03/05 10:31:26;;;;;;;1201.23;999.90;;;8.60;99.90;;;;;;4993018;28;20961;-66
2024/03/05 10:33:54;;;;;;;1193.33;999.90;;;8.60;99.90;;;;;;4992552;28;20497;-66
2024/03/05 10:36:26;;;;;;;1238.07;999.90;;;8.60;99.90;;;;;;4992685;28;20485;-67
2024/03/05 10:38:53;;;;;;;1223.87;999.90;;;8.60;99.90;;;;;;5004740;28;20457;-67
2024/03/05 10:41:22;;;;;;;1215.13;999.90;;;8.60;99.90;;;;;;5012316;28;20953;-67
2024/03/05 10:43:51;;;;;;;1211.43;999.90;;;8.60;99.90;;;;;;5004216;28;20528;-67
2024/03/05 10:46:18;;;;;;;1206.10;999.90;;;8.60;99.90;;;;;;4991623;28;20450;-67
2024/03/05 10:48:46;;;;;;;1214.03;999.90;;;8.50;99.90;;;;;;5003490;28;20808;-66
2024/03/05 10:51:14;;;;;;;1195.27;999.90;;;8.70;99.90;;;;;;5012111;28;20990;-67
2024/03/05 10:53:43;;;;;;;1202.33;999.90;;;8.50;99.90;;;;;;5004208;28;20477;-66
2024/03/05 10:56:12;;;;;;;1211.20;999.90;;;8.50;99.90;;;;;;5011895;28;20499;-66
2024/03/05 11:01:24;;;;;;;1205.10;999.90;;;8.50;99.90;;;;;;5012294;28;20461;-67
2024/03/05 11:03:55;;;;;;;1175.67;999.90;;;8.60;99.90;;;;;;5004522;28;20554;-67
2024/03/05 11:06:24;;;;;;;1169.27;999.90;;;8.60;99.90;;;;;;5004595;28;20462;-65
2024/03/05 11:08:52;;;;;;;1170.30;999.90;;;8.60;99.90;;;;;;4995878;28;20449;-66
2024/03/05 11:11:22;;;;;;;1173.97;999.90;;;8.60;99.90;;;;;;5011926;28;20884;-66
2024/03/05 11:13:50;;;;;;;1172.28;999.90;;;8.60;99.90;;;;;;5003020;28;20469;-67
2024/03/05 11:16:19;;;;;;;1130.77;999.90;;;8.60;99.90;;;;;;5011886;28;20232;-67
2024/03/05 11:18:47;;;;;;;1134.50;999.90;;;8.60;99.90;;;;;;5010550;28;20468;-66
2024/03/05 11:21:17;;;;;;;1128.33;999.90;;;8.60;99.90;;;;;;5012347;28;20464;-66
2024/03/05 11:23:57;;;;;;;1129.03;999.90;;;8.60;99.90;;;;;;5003800;28;20920;-67
2024/03/05 11:26:25;;;;;;;1126.30;999.90;;;8.70;99.90;;;;;;5012013;28;20459;-67
2024/03/05 11:29:02;;;;;;;1115.27;999.90;;;8.60;99.90;;;;;;5004401;28;20456;-67
2024/03/05 11:31:29;;;;;;;1112.93;999.90;;;8.60;99.90;;;;;;5012274;28;20820;-66
2024/03/05 11:34:05;;;;;;;1080.47;998.87;;;8.60;99.90;;;;;;5012201;28;20479;-67
2024/03/05 11:36:33;;;;;;;1077.20;997.37;;;8.60;99.90;;;;;;5003181;28;20547;-67
2024/03/05 11:39:06;;;;;;;1027.97;953.83;;;8.70;99.90;;;;;;4992607;28;20458;-67
2024/03/05 11:41:34;;;;;;;998.57;931.33;;;8.70;99.90;;;;;;5001579;28;20842;-67
2024/03/05 11:44:02;;;;;;;963.67;899.60;;;8.70;99.90;;;;;;5012117;28;20477;-66
2024/03/05 11:46:45;;;;;;;908.47;849.33;;;8.60;99.90;;;;;;5003610;28;20817;-66
2024/03/05 11:49:13;;;;;;;873.87;817.60;;;8.60;99.90;;;;;;5006016;28;20453;-67
2024/03/05 11:51:41;;;;;;;830.17;779.93;;;8.60;99.90;;;;;;4992597;28;20454;-67
2024/03/05 11:54:09;;;;;;;830.87;780.97;;;8.50;99.90;;;;;;5006193;28;20477;-67
2024/03/05 11:56:37;;;;;;;850.33;796.90;;;8.50;99.90;;;;;;5009957;28;21031;-67
2024/03/05 11:59:05;;;;;;;856.43;802.97;;;8.50;99.90;;;;;;4997278;28;20464;-66
2024/03/05 12:01:32;;;;;;;849.30;795.77;;;8.50;99.90;;;;;;5003815;28;20461;-67
2024/03/05 12:04:06;;;;;;;879.60;823.43;;;8.50;99.90;;;;;;5007483;28;20473;-67
2024/03/05 12:06:33;;;;;;;903.47;845.07;;;8.50;99.90;;;;;;4991885;28;20450;-67
2024/03/05 12:09:20;;;;;;;888.17;829.40;;;8.60;99.90;;;;;;4995531;28;20488;-67
2024/03/05 12:12:02;;;;;;;935.23;874.70;;;8.60;99.90;;;;;;4995338;28;21039;-67
2024/03/05 12:14:32;;;;;;;944.43;884.23;;;8.70;99.90;;;;;;5012565;28;20709;-67
2024/03/05 12:17:02;;;;;;;946.30;888.70;;;8.80;99.90;;;;;;5015547;28;20915;-67
2024/03/05 12:19:29;;;;;;;975.03;913.93;;;8.80;99.90;;;;;;5015409;28;20536;-67
2024/03/05 12:21:55;;;;;;;1019.60;955.00;;;8.90;99.90;;;;;;5015554;28;20453;-67
2024/03/05 12:24:24;;;;;;;1032.53;966.33;;;9.00;99.90;;;;;;5014843;28;20555;-67
2024/03/05 12:26:51;;;;;;;1078.23;999.90;;;9.10;99.90;;;;;;5015516;28;20456;-67
2024/03/05 12:29:37;;;;;;;1030.53;962.33;;;9.20;99.90;;;;;;5015395;28;20456;-67